Time;durP1;ratioP1;P1;durP2;ratioP2;P2;SDS_P1;SDS_P2;PMS_P1;PMS_P2;Temp;Humidity;BMP_temperature;BMP_pressure;BME280_temperature;BME280_humidity;BME280_pressure;Samples;Min_cycle;Max_cycle;Signal;HPM_P1;HPM_P2
2021/05/27 00:00:52;;;;;;;1.42;1.10;;;7.50;99.90;;;;;;4687271;30;20057;-85
2021/05/27 00:03:20;;;;;;;1.13;1.10;;;7.50;99.90;;;;;;4701307;30;20064;-86
2021/05/27 00:05:48;;;;;;;1.55;1.45;;;7.50;99.90;;;;;;4715620;30;20060;-86
2021/05/27 00:08:16;;;;;;;1.40;1.30;;;7.60;99.90;;;;;;4702149;30;20061;-85
2021/05/27 00:10:44;;;;;;;2.05;1.85;;;7.60;99.90;;;;;;4706100;30;20053;-86
2021/05/27 00:13:12;;;;;;;0.90;0.90;;;7.60;99.90;;;;;;4730213;30;20044;-86
2021/05/27 00:15:41;;;;;;;1.88;1.73;;;7.40;99.90;;;;;;4733418;30;20073;-86
2021/05/27 00:18:09;;;;;;;1.45;1.35;;;7.60;99.90;;;;;;4730885;30;20060;-86
2021/05/27 00:20:37;;;;;;;1.40;1.30;;;7.60;99.90;;;;;;4717212;30;20055;-85
2021/05/27 00:23:05;;;;;;;1.35;1.25;;;7.60;99.90;;;;;;4717958;30;20061;-85
2021/05/27 00:25:33;;;;;;;0.90;0.90;;;7.60;99.90;;;;;;4700369;30;20508;-85
2021/05/27 00:28:01;;;;;;;1.77;1.20;;;7.60;99.90;;;;;;4701183;30;20419;-85
2021/05/27 00:30:29;;;;;;;1.67;1.00;;;7.60;99.90;;;;;;4678423;30;20056;-85
2021/05/27 00:32:57;;;;;;;1.55;1.45;;;7.60;99.90;;;;;;4726047;30;20065;-85
2021/05/27 00:35:25;;;;;;;3.63;1.35;;;7.60;99.90;;;;;;4731752;30;20071;-85
2021/05/27 00:37:53;;;;;;;2.17;1.98;;;7.60;99.90;;;;;;4700763;30;20056;-85
2021/05/27 00:40:21;;;;;;;1.33;1.23;;;7.70;99.90;;;;;;4714227;30;20069;-82
2021/05/27 00:42:49;;;;;;;1.73;1.50;;;7.70;99.90;;;;;;4713500;30;20594;-82
2021/05/27 00:45:18;;;;;;;2.05;1.23;;;7.70;99.90;;;;;;4739419;30;20051;-82
2021/05/27 00:47:46;;;;;;;1.58;1.42;;;7.70;99.90;;;;;;4736278;30;20061;-82
2021/05/27 00:50:21;;;;;;;1.15;1.05;;;7.80;99.90;;;;;;4717453;30;20061;-82
2021/05/27 00:52:52;;;;;;;1.27;1.17;;;7.70;99.90;;;;;;4732200;30;20072;-82
2021/05/27 00:55:21;;;;;;;1.35;1.25;;;7.80;99.90;;;;;;4720043;30;20052;-82
2021/05/27 00:57:50;;;;;;;1.50;1.40;;;7.80;99.90;;;;;;4750251;30;20081;-82
2021/05/27 01:00:22;;;;;;;1.55;0.98;;;7.80;99.90;;;;;;4734624;30;20067;-81
2021/05/27 01:02:50;;;;;;;2.50;1.13;;;7.70;99.90;;;;;;4720991;30;20063;-82
2021/05/27 01:05:19;;;;;;;1.15;1.13;;;7.70;99.90;;;;;;4731034;30;20060;-82
2021/05/27 01:07:47;;;;;;;1.67;1.40;;;7.70;99.90;;;;;;4735102;30;20419;-82
2021/05/27 01:10:21;;;;;;;1.88;1.20;;;7.70;99.90;;;;;;4709088;30;20060;-82
2021/05/27 01:12:50;;;;;;;1.17;1.17;;;7.70;99.90;;;;;;4725552;30;20056;-82
2021/05/27 01:15:36;;;;;;;1.42;1.25;;;7.80;99.90;;;;;;4720603;30;20630;-82
2021/05/27 01:18:14;;;;;;;1.05;1.05;;;7.70;99.90;;;;;;4730935;30;20129;-82
2021/05/27 01:20:49;;;;;;;2.88;1.85;;;7.80;99.90;;;;;;4716334;30;20063;-81
2021/05/27 01:23:20;;;;;;;1.63;1.52;;;7.80;99.90;;;;;;4721719;30;20063;-81
2021/05/27 01:25:50;;;;;;;1.90;1.67;;;7.80;99.90;;;;;;4733728;30;20083;-81
2021/05/27 01:28:19;;;;;;;2.35;1.13;;;7.80;99.90;;;;;;4716733;30;20060;-81
2021/05/27 01:30:48;;;;;;;6.38;2.05;;;7.80;99.90;;;;;;4716365;30;20495;-81
2021/05/27 01:33:26;;;;;;;1.73;1.63;;;7.80;99.90;;;;;;4702277;30;20056;-82
2021/05/27 01:35:54;;;;;;;1.52;1.42;;;7.80;99.90;;;;;;4727119;30;20055;-82
2021/05/27 01:38:30;;;;;;;1.48;1.38;;;7.80;99.90;;;;;;4717187;30;20495;-81
2021/05/27 01:41:01;;;;;;;1.63;1.52;;;7.80;99.90;;;;;;4743517;30;20056;-82
2021/05/27 01:43:30;;;;;;;1.80;1.65;;;7.80;99.90;;;;;;4734567;30;20064;-81
2021/05/27 01:45:59;;;;;;;3.22;1.75;;;7.90;99.90;;;;;;4719175;30;20072;-82
2021/05/27 01:48:27;;;;;;;2.22;2.05;;;7.90;99.90;;;;;;4731650;30;20060;-82
2021/05/27 01:50:55;;;;;;;2.30;2.10;;;7.80;99.90;;;;;;4717217;30;20064;-82
2021/05/27 01:53:24;;;;;;;1.90;1.73;;;7.80;99.90;;;;;;4731241;30;20492;-81
2021/05/27 01:55:53;;;;;;;4.18;1.33;;;7.90;99.90;;;;;;4716946;30;20052;-81
2021/05/27 01:58:23;;;;;;;2.58;1.75;;;7.90;99.90;;;;;;4728456;30;20059;-81
2021/05/27 02:00:52;;;;;;;1.85;1.42;;;7.90;99.90;;;;;;4733827;30;20060;-81
2021/05/27 02:03:26;;;;;;;1.45;1.35;;;7.90;99.90;;;;;;4720352;30;20060;-82
2021/05/27 02:06:03;;;;;;;1.40;1.30;;;7.80;99.90;;;;;;4703729;30;20063;-81
2021/05/27 02:08:31;;;;;;;1.45;1.38;;;7.80;99.90;;;;;;4738675;30;20057;-81
2021/05/27 02:11:04;;;;;;;1.73;1.40;;;7.90;99.90;;;;;;4733192;30;20061;-81
2021/05/27 02:13:34;;;;;;;2.10;1.45;;;7.90;99.90;;;;;;4733400;30;20411;-82
2021/05/27 02:16:04;;;;;;;1.52;1.35;;;7.80;99.90;;;;;;4749174;30;20419;-82
2021/05/27 02:18:33;;;;;;;1.67;1.35;;;7.80;99.90;;;;;;4740707;30;20044;-81
2021/05/27 02:21:01;;;;;;;1.17;1.17;;;7.80;99.90;;;;;;4744434;30;20052;-83
2021/05/27 02:23:30;;;;;;;1.23;1.13;;;7.80;99.90;;;;;;4747966;30;20067;-83
2021/05/27 02:26:07;;;;;;;1.27;1.23;;;7.70;99.90;;;;;;4733298;30;20063;-84
2021/05/27 02:28:47;;;;;;;1.15;1.13;;;7.70;99.90;;;;;;4733666;30;20052;-83
2021/05/27 02:31:16;;;;;;;1.00;0.90;;;7.70;99.90;;;;;;4735626;30;20056;-79
2021/05/27 02:33:49;;;;;;;2.17;1.40;;;7.60;99.90;;;;;;4751310;30;20053;-79
2021/05/27 02:36:22;;;;;;;1.08;1.08;;;7.60;99.90;;;;;;4745491;30;20071;-80
2021/05/27 02:38:50;;;;;;;1.02;1.02;;;7.60;99.90;;;;;;4767263;30;20064;-80
2021/05/27 02:41:24;;;;;;;1.00;1.00;;;7.60;99.90;;;;;;4752791;30;20052;-83
2021/05/27 02:43:54;;;;;;;1.35;1.23;;;7.50;99.90;;;;;;4735539;30;20071;-83
2021/05/27 02:46:25;;;;;;;1.33;0.80;;;7.60;99.90;;;;;;4724173;30;20612;-83
2021/05/27 02:48:54;;;;;;;0.90;0.90;;;7.60;99.90;;;;;;4737113;30;20490;-83
2021/05/27 02:51:22;;;;;;;0.77;0.77;;;7.60;99.90;;;;;;4737298;30;20075;-83
2021/05/27 02:53:51;;;;;;;0.70;0.70;;;7.60;99.90;;;;;;4722393;30;20052;-83
2021/05/27 02:56:20;;;;;;;1.45;1.35;;;7.60;99.90;;;;;;4720150;30;20064;-83
2021/05/27 02:58:54;;;;;;;1.10;1.00;;;7.70;99.90;;;;;;4719895;30;20056;-83
2021/05/27 03:01:22;;;;;;;1.25;0.80;;;7.70;99.90;;;;;;4734444;30;20624;-83
2021/05/27 03:03:52;;;;;;;1.33;1.23;;;7.70;99.90;;;;;;4735507;30;20060;-82
2021/05/27 03:06:20;;;;;;;1.73;1.60;;;7.60;99.90;;;;;;4749212;30;20056;-83
2021/05/27 03:08:51;;;;;;;1.02;0.85;;;7.70;99.90;;;;;;4731200;30;20045;-83
2021/05/27 03:11:21;;;;;;;1.15;1.00;;;7.70;99.90;;;;;;4720282;30;20064;-83
2021/05/27 03:13:55;;;;;;;1.45;0.88;;;7.60;99.90;;;;;;4706426;30;20060;-82
2021/05/27 03:16:25;;;;;;;1.37;1.00;;;7.60;99.90;;;;;;4718983;30;20067;-83
2021/05/27 03:18:54;;;;;;;0.70;0.70;;;7.50;99.90;;;;;;4720803;30;20060;-83
2021/05/27 03:21:24;;;;;;;0.75;0.75;;;7.50;99.90;;;;;;4752133;30;20402;-79
2021/05/27 03:23:52;;;;;;;1.42;1.42;;;7.50;99.90;;;;;;4735670;30;20071;-79
2021/05/27 03:26:22;;;;;;;1.08;0.98;;;7.50;99.90;;;;;;4721629;30;20049;-80
2021/05/27 03:28:51;;;;;;;1.25;1.15;;;7.60;99.90;;;;;;4711374;30;20055;-80
2021/05/27 03:31:20;;;;;;;1.02;1.02;;;7.60;99.90;;;;;;4733171;30;20736;-81
2021/05/27 03:33:48;;;;;;;0.60;0.60;;;7.60;99.90;;;;;;4751747;30;20063;-80
2021/05/27 03:36:17;;;;;;;1.10;1.10;;;7.60;99.90;;;;;;4743709;30;20438;-80
2021/05/27 03:38:48;;;;;;;2.33;2.15;;;7.60;99.90;;;;;;4754102;30;20064;-81
2021/05/27 03:41:17;;;;;;;1.17;1.08;;;7.60;99.90;;;;;;4748357;30;20048;-80
2021/05/27 03:43:46;;;;;;;1.60;1.50;;;7.50;99.90;;;;;;4736174;30;20056;-80
2021/05/27 03:46:17;;;;;;;1.23;1.17;;;7.50;99.90;;;;;;4751794;30;20052;-79
2021/05/27 03:48:45;;;;;;;3.42;1.15;;;7.60;99.90;;;;;;4751437;30;20291;-80
2021/05/27 03:51:13;;;;;;;0.90;0.90;;;7.60;99.90;;;;;;4740993;30;20064;-80
2021/05/27 03:53:41;;;;;;;1.00;1.00;;;7.60;99.90;;;;;;4717332;30;20060;-80
2021/05/27 03:56:10;;;;;;;1.20;1.20;;;7.60;99.90;;;;;;4719087;30;20060;-79
2021/05/27 04:01:32;;;;;;;2.05;1.85;;;7.60;99.90;;;;;;4744367;30;20052;-79
2021/05/27 04:07:11;;;;;;;1.17;0.93;;;7.70;99.90;;;;;;4734116;30;20067;-79
2021/05/27 04:09:40;;;;;;;0.75;0.75;;;7.60;99.90;;;;;;4717332;30;20053;-79
2021/05/27 04:17:43;;;;;;;1.00;0.90;;;7.60;99.90;;;;;;4733671;30;20076;-79
2021/05/27 04:20:12;;;;;;;0.90;0.90;;;7.70;99.90;;;;;;4733611;30;20496;-79
2021/05/27 04:22:44;;;;;;;1.05;1.00;;;7.60;99.90;;;;;;4747499;30;20052;-79
2021/05/27 04:25:13;;;;;;;1.35;1.33;;;7.60;99.90;;;;;;4750183;30;20052;-80
2021/05/27 04:27:43;;;;;;;0.80;0.80;;;7.70;99.90;;;;;;4751473;30;20083;-79
2021/05/27 04:30:16;;;;;;;1.42;1.33;;;7.70;99.90;;;;;;4750880;30;20048;-80
2021/05/27 04:35:40;;;;;;;0.93;0.82;;;7.70;99.90;;;;;;4719178;30;20063;-80
2021/05/27 04:38:11;;;;;;;1.00;1.00;;;7.70;99.90;;;;;;4738128;30;20407;-80
2021/05/27 04:40:48;;;;;;;0.90;0.90;;;7.70;99.90;;;;;;4732343;30;20043;-80
2021/05/27 04:43:18;;;;;;;1.45;1.35;;;7.70;99.90;;;;;;4737357;30;20087;-80
2021/05/27 04:45:46;;;;;;;0.90;0.90;;;7.70;99.90;;;;;;4724362;30;20055;-81
2021/05/27 04:48:15;;;;;;;1.52;1.40;;;7.70;99.90;;;;;;4735629;30;20063;-79
2021/05/27 04:50:46;;;;;;;2.13;1.98;;;7.70;99.90;;;;;;4734479;30;20065;-80
2021/05/27 04:53:14;;;;;;;1.38;1.02;;;7.80;99.90;;;;;;4747839;30;20056;-80
2021/05/27 04:55:45;;;;;;;0.93;0.93;;;7.80;99.90;;;;;;4744159;30;20060;-80
2021/05/27 04:58:13;;;;;;;0.90;0.90;;;7.80;99.90;;;;;;4732838;30;20522;-79
2021/05/27 05:00:41;;;;;;;1.30;1.10;;;7.80;99.90;;;;;;4717207;30;20048;-80
2021/05/27 05:03:09;;;;;;;1.35;1.25;;;7.80;99.90;;;;;;4710063;30;20056;-80
2021/05/27 05:05:37;;;;;;;1.85;1.02;;;7.80;99.90;;;;;;4736066;30;20049;-79
2021/05/27 05:08:06;;;;;;;1.33;1.23;;;7.80;99.90;;;;;;4720648;30;20060;-80
2021/05/27 05:10:35;;;;;;;1.58;1.23;;;7.80;99.90;;;;;;4733634;30;20049;-80
2021/05/27 05:13:04;;;;;;;1.30;1.20;;;7.80;99.90;;;;;;4734744;30;20056;-80
2021/05/27 05:15:38;;;;;;;1.40;1.30;;;7.90;99.90;;;;;;4750128;30;20071;-80
2021/05/27 05:18:15;;;;;;;0.90;0.90;;;7.90;99.90;;;;;;4719757;30;20044;-80
2021/05/27 05:20:49;;;;;;;1.65;1.10;;;8.00;99.90;;;;;;4730877;30;20049;-80
2021/05/27 05:23:19;;;;;;;1.20;1.10;;;8.00;99.90;;;;;;4717434;30;20056;-80
2021/05/27 05:25:48;;;;;;;1.63;1.52;;;8.20;99.90;;;;;;4716617;30;20079;-80
2021/05/27 05:28:15;;;;;;;1.10;1.00;;;8.20;99.90;;;;;;4732696;30;20067;-81
2021/05/27 05:30:45;;;;;;;3.17;1.05;;;8.30;99.90;;;;;;4731361;30;20065;-80
2021/05/27 05:33:13;;;;;;;1.05;0.98;;;8.30;99.90;;;;;;4716313;30;20045;-80
2021/05/27 05:35:41;;;;;;;0.98;0.98;;;8.40;99.90;;;;;;4723407;30;20055;-80
2021/05/27 05:38:09;;;;;;;0.90;0.90;;;8.40;99.90;;;;;;4737275;30;20049;-80
2021/05/27 05:40:37;;;;;;;0.90;0.90;;;8.40;99.90;;;;;;4718873;30;20044;-80
2021/05/27 05:43:05;;;;;;;1.90;1.70;;;8.40;99.90;;;;;;4722985;30;20068;-80
2021/05/27 05:45:34;;;;;;;1.52;1.42;;;8.50;99.90;;;;;;4714750;30;20045;-79
2021/05/27 05:48:04;;;;;;;2.08;1.98;;;8.50;99.90;;;;;;4725181;30;20103;-80
2021/05/27 05:50:50;;;;;;;1.20;1.20;;;8.40;99.90;;;;;;4732203;30;20059;-81
2021/05/27 05:53:23;;;;;;;1.38;1.23;;;8.40;99.90;;;;;;4731563;30;20045;-81
2021/05/27 05:55:53;;;;;;;1.75;1.10;;;8.40;99.90;;;;;;4727765;30;20042;-84
2021/05/27 05:58:23;;;;;;;1.00;0.90;;;8.40;99.90;;;;;;4699674;30;20053;-84
2021/05/27 06:00:52;;;;;;;1.58;1.02;;;8.50;99.90;;;;;;4715012;30;20037;-84
2021/05/27 06:03:21;;;;;;;1.35;1.25;;;8.50;99.90;;;;;;4700973;30;20503;-81
2021/05/27 06:06:10;;;;;;;1.15;1.05;;;8.50;99.90;;;;;;4715142;30;20049;-82
2021/05/27 06:08:38;;;;;;;1.38;1.35;;;8.50;99.90;;;;;;4723114;30;20610;-81
2021/05/27 06:11:06;;;;;;;1.05;0.98;;;8.40;99.90;;;;;;4726852;30;20411;-84
2021/05/27 06:13:34;;;;;;;1.85;1.75;;;8.40;99.90;;;;;;4713655;30;20057;-83
2021/05/27 06:16:02;;;;;;;0.90;0.90;;;8.50;99.90;;;;;;4729992;30;20068;-82
2021/05/27 06:18:30;;;;;;;1.20;1.08;;;8.50;99.90;;;;;;4714469;30;20057;-83
2021/05/27 06:21:34;;;;;;;0.80;0.80;;;8.50;99.90;;;;;;4660444;30;20058;-82
2021/05/27 06:24:09;;;;;;;1.00;1.00;;;8.40;99.90;;;;;;4704372;30;20065;-82
2021/05/27 06:26:37;;;;;;;1.17;1.00;;;8.40;99.90;;;;;;4714546;30;20057;-82
2021/05/27 06:29:05;;;;;;;1.17;1.08;;;8.50;99.90;;;;;;4714938;30;20060;-85
2021/05/27 06:31:33;;;;;;;1.00;0.90;;;8.50;99.90;;;;;;4716283;30;20435;-84
2021/05/27 06:34:01;;;;;;;1.02;0.93;;;8.50;99.90;;;;;;4716256;30;20426;-84
2021/05/27 06:36:30;;;;;;;2.75;1.33;;;8.60;99.90;;;;;;4715391;30;20082;-83
2021/05/27 06:39:03;;;;;;;2.88;1.00;;;8.60;99.90;;;;;;4715320;30;20068;-82
2021/05/27 06:41:34;;;;;;;0.80;0.80;;;8.60;99.90;;;;;;4713502;30;20540;-83
2021/05/27 06:44:02;;;;;;;0.73;0.73;;;8.60;99.90;;;;;;4703443;30;20064;-83
2021/05/27 06:46:30;;;;;;;0.82;0.82;;;8.50;99.90;;;;;;4715093;30;20061;-82
2021/05/27 06:48:58;;;;;;;1.00;0.90;;;8.50;99.90;;;;;;4715152;30;20078;-85
2021/05/27 06:51:26;;;;;;;0.80;0.80;;;8.50;99.90;;;;;;4714500;30;20408;-82
2021/05/27 06:53:54;;;;;;;0.80;0.80;;;8.60;99.90;;;;;;4714812;30;20064;-83
2021/05/27 06:56:23;;;;;;;0.70;0.70;;;8.60;99.90;;;;;;4733068;30;20613;-83
2021/05/27 06:58:51;;;;;;;0.80;0.80;;;8.60;99.90;;;;;;4730879;30;20495;-82
2021/05/27 07:01:19;;;;;;;1.25;0.60;;;8.70;99.90;;;;;;4714145;30;20046;-83
2021/05/27 07:03:47;;;;;;;1.05;0.75;;;8.60;99.90;;;;;;4729812;30;20061;-83
2021/05/27 07:06:16;;;;;;;1.00;1.00;;;8.70;99.90;;;;;;4731906;30;20518;-84
2021/05/27 07:08:43;;;;;;;1.08;0.82;;;8.70;99.90;;;;;;4732193;30;20059;-83
2021/05/27 07:11:12;;;;;;;0.70;0.70;;;8.80;99.90;;;;;;4731328;30;20056;-85
2021/05/27 07:13:40;;;;;;;1.02;1.02;;;8.80;99.90;;;;;;4710173;30;20049;-84
2021/05/27 07:16:08;;;;;;;1.85;0.85;;;8.80;99.90;;;;;;4722833;30;20053;-85
2021/05/27 07:18:36;;;;;;;1.10;1.10;;;9.00;99.90;;;;;;4716498;30;20049;-84
2021/05/27 07:21:04;;;;;;;0.80;0.80;;;9.00;99.90;;;;;;4716883;30;20052;-81
2021/05/27 07:23:32;;;;;;;1.08;0.95;;;9.10;99.90;;;;;;4721339;30;20065;-84
2021/05/27 07:26:02;;;;;;;1.85;0.80;;;9.10;99.90;;;;;;4734563;30;20057;-82
2021/05/27 07:28:31;;;;;;;1.33;1.05;;;9.10;99.90;;;;;;4726145;30;20072;-83
2021/05/27 07:31:00;;;;;;;1.05;1.05;;;9.10;99.90;;;;;;4721327;30;20057;-83
2021/05/27 07:33:28;;;;;;;1.00;1.00;;;9.00;99.90;;;;;;4720098;30;20063;-82
2021/05/27 07:35:56;;;;;;;1.00;1.00;;;9.00;99.90;;;;;;4738739;30;20087;-81
2021/05/27 07:38:24;;;;;;;0.95;0.95;;;9.00;99.90;;;;;;4738160;30;20071;-81
2021/05/27 07:40:52;;;;;;;1.27;0.82;;;9.00;99.90;;;;;;4722967;30;20053;-80
2021/05/27 07:43:20;;;;;;;0.77;0.77;;;9.00;99.90;;;;;;4731123;30;20447;-82
2021/05/27 07:45:48;;;;;;;2.42;1.00;;;9.00;99.90;;;;;;4727962;30;20049;-83
2021/05/27 07:48:16;;;;;;;1.85;1.75;;;9.10;99.90;;;;;;4717522;30;20057;-81
2021/05/27 07:50:43;;;;;;;1.00;1.00;;;9.10;99.90;;;;;;4724863;30;20048;-82
2021/05/27 07:53:16;;;;;;;1.58;1.40;;;9.10;99.90;;;;;;4726934;30;20056;-85
2021/05/27 07:55:44;;;;;;;0.68;0.68;;;9.30;99.90;;;;;;4716775;30;20068;-84
2021/05/27 07:58:11;;;;;;;0.85;0.85;;;9.20;99.90;;;;;;4701183;30;20057;-82
2021/05/27 08:00:40;;;;;;;1.10;1.00;;;9.30;99.90;;;;;;4714957;30;20079;-82
2021/05/27 08:03:08;;;;;;;0.90;0.90;;;9.40;99.90;;;;;;4720284;30;20487;-83
2021/05/27 08:05:36;;;;;;;1.48;1.40;;;9.40;99.90;;;;;;4734277;30;20060;-87
2021/05/27 08:08:08;;;;;;;0.80;0.80;;;9.30;99.90;;;;;;4728131;30;20166;-86
2021/05/27 08:10:36;;;;;;;1.00;1.00;;;9.30;99.90;;;;;;4686353;30;20443;-87
2021/05/27 08:13:10;;;;;;;0.60;0.60;;;9.30;99.90;;;;;;4715247;30;20730;-85
2021/05/27 08:15:42;;;;;;;0.85;0.85;;;9.30;99.90;;;;;;4717220;30;20061;-85
2021/05/27 08:18:10;;;;;;;0.73;0.73;;;9.20;99.90;;;;;;4716111;30;20045;-84
2021/05/27 08:20:38;;;;;;;0.98;0.98;;;9.20;99.90;;;;;;4701129;30;20052;-83
2021/05/27 08:23:06;;;;;;;1.00;1.00;;;9.30;99.90;;;;;;4691055;30;20590;-87
2021/05/27 08:25:44;;;;;;;1.38;0.90;;;9.30;99.90;;;;;;4714975;30;20057;-84
2021/05/27 08:28:12;;;;;;;0.98;0.98;;;9.30;99.90;;;;;;4715179;30;20421;-84
2021/05/27 08:30:40;;;;;;;0.70;0.70;;;9.40;99.90;;;;;;4714137;30;20056;-83
2021/05/27 08:33:08;;;;;;;0.70;0.70;;;9.40;99.90;;;;;;4686683;30;20045;-84
2021/05/27 08:35:36;;;;;;;1.80;0.93;;;9.40;99.90;;;;;;4698783;30;20044;-83
2021/05/27 08:38:04;;;;;;;0.90;0.90;;;9.50;99.90;;;;;;4750148;30;20044;-84
2021/05/27 08:40:37;;;;;;;0.82;0.82;;;9.60;99.90;;;;;;4747544;30;20065;-82
2021/05/27 08:43:05;;;;;;;0.88;0.88;;;9.70;99.90;;;;;;4737377;30;20388;-82
2021/05/27 08:45:40;;;;;;;0.82;0.80;;;9.70;99.90;;;;;;4745977;30;20052;-77
2021/05/27 08:48:12;;;;;;;1.30;1.10;;;9.70;99.90;;;;;;4751095;30;20064;-85
2021/05/27 08:50:47;;;;;;;4.32;1.20;;;9.90;99.90;;;;;;4734577;30;20052;-82
2021/05/27 08:53:17;;;;;;;0.75;0.75;;;9.90;99.90;;;;;;4734563;30;20425;-82
2021/05/27 08:55:46;;;;;;;1.08;0.98;;;9.80;99.90;;;;;;4749567;30;20060;-81
2021/05/27 08:58:15;;;;;;;0.80;0.80;;;9.90;99.90;;;;;;4716984;30;20056;-81
2021/05/27 09:00:44;;;;;;;1.15;1.05;;;9.80;99.90;;;;;;4717957;30;20518;-82
2021/05/27 09:03:17;;;;;;;0.70;0.70;;;9.60;99.90;;;;;;4735159;30;20522;-81
2021/05/27 09:05:46;;;;;;;1.10;1.10;;;9.50;99.90;;;;;;4748115;30;20415;-88
2021/05/27 09:08:29;;;;;;;0.80;0.80;;;9.50;99.90;;;;;;4721053;30;20072;-88
2021/05/27 09:11:11;;;;;;;1.02;1.02;;;9.50;99.90;;;;;;4695401;30;20055;-87
2021/05/27 09:13:57;;;;;;;1.15;1.00;;;9.70;99.90;;;;;;4703239;30;20056;-87
2021/05/27 09:16:28;;;;;;;1.50;1.20;;;9.80;99.90;;;;;;4710175;30;20056;-78
2021/05/27 09:19:12;;;;;;;1.20;1.17;;;9.80;99.90;;;;;;4734558;30;20068;-78
2021/05/27 09:21:42;;;;;;;1.40;1.30;;;9.90;99.90;;;;;;4725393;30;20491;-78
2021/05/27 09:24:10;;;;;;;1.75;1.10;;;9.90;99.90;;;;;;4737989;30;20053;-79
2021/05/27 09:26:59;;;;;;;0.98;0.98;;;10.00;99.90;;;;;;4740913;30;20060;-77
2021/05/27 09:29:27;;;;;;;0.90;0.90;;;10.00;99.90;;;;;;4750303;30;20048;-79
2021/05/27 09:31:56;;;;;;;1.13;1.10;;;9.80;99.90;;;;;;4746281;30;20052;-78
2021/05/27 09:34:44;;;;;;;1.63;1.52;;;10.10;99.90;;;;;;4734222;30;20079;-79
2021/05/27 09:37:29;;;;;;;1.33;1.23;;;10.10;99.90;;;;;;4750378;30;20530;-78
2021/05/27 09:39:58;;;;;;;1.08;1.00;;;10.20;99.90;;;;;;4745859;30;20065;-79
2021/05/27 09:42:46;;;;;;;2.35;2.20;;;10.20;99.90;;;;;;4742134;30;20048;-79
2021/05/27 09:45:16;;;;;;;1.35;1.25;;;9.90;99.90;;;;;;4736806;30;20662;-80
2021/05/27 09:47:46;;;;;;;2.15;1.42;;;10.00;99.90;;;;;;4719409;30;20071;-79
2021/05/27 09:50:15;;;;;;;1.40;1.30;;;10.00;99.90;;;;;;4731679;30;20503;-79
2021/05/27 09:52:48;;;;;;;1.38;1.20;;;10.00;99.90;;;;;;4747095;30;20078;-78
2021/05/27 09:55:19;;;;;;;1.58;1.48;;;10.00;99.90;;;;;;4716931;30;20068;-78
2021/05/27 09:57:49;;;;;;;2.67;1.50;;;10.00;99.90;;;;;;4750074;30;20052;-78
2021/05/27 10:00:27;;;;;;;1.50;1.40;;;10.10;99.90;;;;;;4733463;30;20063;-79
2021/05/27 10:02:56;;;;;;;1.27;1.20;;;10.30;99.90;;;;;;4749880;30;20056;-78
2021/05/27 10:05:24;;;;;;;1.15;1.13;;;10.30;99.90;;;;;;4731373;30;20056;-78
2021/05/27 10:07:55;;;;;;;2.05;1.88;;;10.30;99.90;;;;;;4743076;30;20075;-78
2021/05/27 10:10:44;;;;;;;1.75;1.60;;;10.30;99.90;;;;;;4729297;30;20056;-77
2021/05/27 10:13:15;;;;;;;1.15;1.10;;;10.60;99.90;;;;;;4749822;30;20056;-78
2021/05/27 10:15:45;;;;;;;2.28;1.17;;;10.60;99.90;;;;;;4750506;30;20060;-77
2021/05/27 10:18:18;;;;;;;1.75;1.65;;;10.60;99.90;;;;;;4734057;30;20048;-77
2021/05/27 10:20:47;;;;;;;1.00;1.00;;;10.50;99.90;;;;;;4737369;30;20487;-77
2021/05/27 10:23:16;;;;;;;1.95;1.40;;;10.60;99.90;;;;;;4725430;30;20059;-77
2021/05/27 10:25:45;;;;;;;0.88;0.88;;;10.30;99.90;;;;;;4732479;30;20059;-77
2021/05/27 10:28:16;;;;;;;1.20;1.00;;;10.10;99.90;;;;;;4732423;30;20499;-78
2021/05/27 10:30:46;;;;;;;1.50;1.40;;;10.10;99.90;;;;;;4715948;30;20547;-78
2021/05/27 10:33:20;;;;;;;1.90;1.40;;;10.10;99.90;;;;;;4731928;30;20053;-78
2021/05/27 10:35:52;;;;;;;2.03;1.33;;;10.20;99.90;;;;;;4746766;30;20056;-78
2021/05/27 10:38:41;;;;;;;1.35;1.25;;;10.10;99.90;;;;;;4751536;30;20064;-77
2021/05/27 10:41:12;;;;;;;3.67;2.42;;;10.20;99.90;;;;;;4749838;30;20049;-78
2021/05/27 10:44:05;;;;;;;2.97;1.60;;;10.50;99.90;;;;;;4713632;30;20633;-78
2021/05/27 10:46:53;;;;;;;2.55;2.30;;;10.30;99.90;;;;;;4720483;30;20049;-78
2021/05/27 10:49:39;;;;;;;2.13;1.95;;;10.30;99.90;;;;;;4731615;30;20053;-78
2021/05/27 10:52:33;;;;;;;1.35;1.27;;;10.20;99.90;;;;;;4733141;30;20060;-77
2021/05/27 10:55:04;;;;;;;2.53;1.35;;;10.30;99.90;;;;;;4732560;30;20052;-78
2021/05/27 10:57:40;;;;;;;7.10;2.15;;;10.40;99.90;;;;;;4725127;30;20508;-77
2021/05/27 11:00:15;;;;;;;0.98;0.98;;;10.30;99.90;;;;;;4706851;30;20083;-77
2021/05/27 11:02:43;;;;;;;0.90;0.90;;;10.10;99.90;;;;;;4715948;30;20531;-77
2021/05/27 11:05:22;;;;;;;1.25;1.13;;;10.10;99.90;;;;;;4716072;30;20057;-79
2021/05/27 11:08:20;;;;;;;4.35;1.20;;;10.10;99.90;;;;;;4726905;30;20056;-77
2021/05/27 11:10:50;;;;;;;0.90;0.90;;;10.20;99.90;;;;;;4728666;30;20459;-77
2021/05/27 11:13:18;;;;;;;1.70;1.10;;;10.20;99.90;;;;;;4735249;30;20075;-78
2021/05/27 11:16:05;;;;;;;1.83;1.73;;;10.10;99.90;;;;;;4735650;30;20057;-78
2021/05/27 11:18:34;;;;;;;1.05;1.05;;;10.10;99.90;;;;;;4722344;30;20056;-78
2021/05/27 11:21:31;;;;;;;1.42;1.27;;;10.10;99.90;;;;;;4716047;30;20045;-77
2021/05/27 11:24:35;;;;;;;1.70;1.60;;;9.90;99.90;;;;;;4717415;30;20148;-77
2021/05/27 11:27:26;;;;;;;2.25;2.05;;;10.00;99.90;;;;;;4703545;30;20049;-77
2021/05/27 11:30:13;;;;;;;2.15;1.15;;;10.30;99.90;;;;;;4730830;30;20056;-75
2021/05/27 11:32:45;;;;;;;1.77;1.42;;;10.50;99.90;;;;;;4717034;30;20488;-75
2021/05/27 11:35:13;;;;;;;1.40;1.30;;;10.60;99.90;;;;;;4717350;30;20069;-75
2021/05/27 11:37:43;;;;;;;3.30;1.25;;;10.60;99.90;;;;;;4716765;30;20041;-76
2021/05/27 11:40:14;;;;;;;2.00;1.90;;;10.50;99.90;;;;;;4716749;30;20067;-75
2021/05/27 11:42:52;;;;;;;1.05;1.05;;;10.70;99.90;;;;;;4717347;30;20057;-75
2021/05/27 11:45:23;;;;;;;1.50;1.30;;;10.70;99.90;;;;;;4732998;30;20053;-76
2021/05/27 11:48:20;;;;;;;2.25;2.15;;;10.80;99.90;;;;;;4734270;30;20436;-75
2021/05/27 11:50:49;;;;;;;1.20;1.10;;;10.90;99.90;;;;;;4733335;30;20053;-76
2021/05/27 11:53:20;;;;;;;2.92;1.00;;;10.90;99.90;;;;;;4733426;30;20124;-76
2021/05/27 11:55:56;;;;;;;1.60;1.50;;;11.10;99.90;;;;;;4733931;30;20065;-75
2021/05/27 11:58:39;;;;;;;4.25;0.90;;;11.10;99.90;;;;;;4733211;30;20053;-75
2021/05/27 12:01:21;;;;;;;2.85;1.02;;;10.80;99.90;;;;;;4733628;30;20053;-76
2021/05/27 12:04:09;;;;;;;8.02;1.30;;;10.80;99.90;;;;;;4720020;30;20052;-75
2021/05/27 12:06:49;;;;;;;7.53;2.53;;;10.70;99.90;;;;;;4742463;30;20048;-76
2021/05/27 12:09:22;;;;;;;1.25;1.02;;;10.50;99.90;;;;;;4736432;30;20052;-75
2021/05/27 12:11:51;;;;;;;0.98;0.98;;;10.50;99.90;;;;;;4743030;30;20056;-75
2021/05/27 12:14:19;;;;;;;0.95;0.90;;;10.40;99.90;;;;;;4733931;30;20057;-75
2021/05/27 12:16:47;;;;;;;0.82;0.82;;;10.40;99.90;;;;;;4734539;30;20064;-75
2021/05/27 12:19:16;;;;;;;1.40;1.30;;;10.40;99.90;;;;;;4734240;30;20863;-76
2021/05/27 12:21:52;;;;;;;5.32;1.40;;;10.40;99.90;;;;;;4739463;30;20407;-76
2021/05/27 12:24:29;;;;;;;6.15;2.15;;;10.50;99.90;;;;;;4750688;30;20056;-76
2021/05/27 12:26:58;;;;;;;1.02;1.02;;;10.60;99.90;;;;;;4751446;30;20407;-76
2021/05/27 12:29:26;;;;;;;3.63;1.42;;;10.60;99.90;;;;;;4751305;30;20422;-76
2021/05/27 12:31:54;;;;;;;1.42;1.33;;;10.70;99.90;;;;;;4746422;30;20127;-76
2021/05/27 12:34:22;;;;;;;2.95;2.05;;;10.70;99.90;;;;;;4733458;30;20055;-75
2021/05/27 12:36:57;;;;;;;3.85;1.85;;;10.80;99.90;;;;;;4740333;30;20053;-76
2021/05/27 12:39:34;;;;;;;1.88;1.55;;;10.80;99.90;;;;;;4717557;30;20424;-76
2021/05/27 12:42:04;;;;;;;0.98;0.98;;;11.00;99.90;;;;;;4736851;30;20052;-76
2021/05/27 12:44:46;;;;;;;1.27;1.25;;;11.10;99.90;;;;;;4720870;30;20056;-76
2021/05/27 12:47:15;;;;;;;1.02;1.00;;;11.40;99.90;;;;;;4716226;30;20567;-75
2021/05/27 12:49:44;;;;;;;1.17;1.17;;;11.40;99.90;;;;;;4715736;30;20046;-75
2021/05/27 12:52:37;;;;;;;0.85;0.85;;;11.30;99.90;;;;;;4717941;30;20049;-75
2021/05/27 12:55:07;;;;;;;1.15;1.05;;;11.30;99.90;;;;;;4717834;30;20066;-75
2021/05/27 12:57:56;;;;;;;2.00;1.33;;;11.30;99.90;;;;;;4731797;30;20052;-76
2021/05/27 13:00:24;;;;;;;1.42;1.33;;;11.40;99.90;;;;;;4731505;30;20064;-77
2021/05/27 13:03:07;;;;;;;2.03;1.20;;;11.70;99.90;;;;;;4727765;30;20057;-76
2021/05/27 13:05:34;;;;;;;1.88;1.75;;;11.90;99.90;;;;;;4714196;30;20052;-76
2021/05/27 13:08:04;;;;;;;0.82;0.77;;;12.00;99.90;;;;;;4717734;30;20053;-77
2021/05/27 13:10:35;;;;;;;0.88;0.85;;;12.30;99.90;;;;;;4732266;30;20500;-77
2021/05/27 13:13:05;;;;;;;0.63;0.63;;;12.80;99.90;;;;;;4718798;30;20408;-77
2021/05/27 13:15:49;;;;;;;0.95;0.95;;;12.90;99.90;;;;;;4732652;30;20419;-77
2021/05/27 13:18:17;;;;;;;1.20;1.10;;;13.20;99.90;;;;;;4732057;30;20056;-77
2021/05/27 13:21:02;;;;;;;0.60;0.60;;;13.30;99.90;;;;;;4721170;30;20053;-77
2021/05/27 13:23:37;;;;;;;2.13;1.02;;;13.40;99.90;;;;;;4719144;30;20060;-78
2021/05/27 13:26:11;;;;;;;0.95;0.80;;;13.50;99.90;;;;;;4727475;30;20066;-78
2021/05/27 13:28:40;;;;;;;0.70;0.70;;;13.60;98.60;;;;;;4719169;30;20049;-77
2021/05/27 13:31:09;;;;;;;1.88;0.60;;;13.50;99.10;;;;;;4717404;30;20405;-77